Time;durP1;ratioP1;P1;durP2;ratioP2;P2;SDS_P1;SDS_P2;PMS_P1;PMS_P2;Temp;Humidity;BMP_temperature;BMP_pressure;BME280_temperature;BME280_humidity;BME280_pressure;Samples;Min_cycle;Max_cycle;Signal;HPM_P1;HPM_P2
2021/11/09 00:00:36;;;;;;;18.40;7.30;;;;;;;;;;4995984;28;20415;-49
2021/11/09 00:03:09;;;;;;;12.83;6.77;;;;;;;;;;4996643;28;20406;-47
2021/11/09 00:05:45;;;;;;;16.13;7.63;;;;;;;;;;4995890;28;20502;-47
2021/11/09 00:08:16;;;;;;;23.87;8.10;;;;;;;;;;4995571;28;20406;-48
2021/11/09 00:10:43;;;;;;;25.63;6.40;;;;;;;;;;4995679;28;20459;-49
2021/11/09 00:13:09;;;;;;;20.50;7.80;;;;;;;;;;4995910;28;20413;-47
2021/11/09 00:15:35;;;;;;;14.63;7.60;;;;;;;;;;4995827;28;20820;-47
2021/11/09 00:18:02;;;;;;;27.47;7.93;;;;;;;;;;4995414;28;20444;-47
2021/11/09 00:20:29;;;;;;;25.80;8.40;;;;;;;;;;4995629;28;20423;-48
2021/11/09 00:22:56;;;;;;;16.50;6.77;;;;;;;;;;4995559;28;20411;-47
2021/11/09 00:25:23;;;;;;;17.70;7.40;;;;;;;;;;4995420;28;20414;-47
2021/11/09 00:27:49;;;;;;;16.57;6.90;;;;;;;;;;4995209;28;20454;-48
2021/11/09 00:30:16;;;;;;;20.57;7.90;;;;;;;;;;4995474;28;20508;-47
2021/11/09 00:32:43;;;;;;;23.70;7.20;;;;;;;;;;4995382;28;20404;-47
2021/11/09 00:35:10;;;;;;;18.90;7.70;;;;;;;;;;4995343;28;20396;-51
2021/11/09 00:37:36;;;;;;;17.13;7.87;;;;;;;;;;4994800;28;20445;-47
2021/11/09 00:40:04;;;;;;;18.43;7.80;;;;;;;;;;4995270;28;20407;-48
2021/11/09 00:42:30;;;;;;;16.17;7.90;;;;;;;;;;4995203;28;20456;-48
2021/11/09 00:44:56;;;;;;;15.53;7.97;;;;;;;;;;4995191;28;20439;-50
2021/11/09 00:47:22;;;;;;;19.30;8.17;;;;;;;;;;4994818;28;20814;-50
2021/11/09 00:49:48;;;;;;;19.47;7.93;;;;;;;;;;4994916;28;20466;-50
2021/11/09 00:52:15;;;;;;;17.53;8.10;;;;;;;;;;4994937;28;20491;-50
2021/11/09 00:54:41;;;;;;;19.13;7.83;;;;;;;;;;4995023;28;20409;-48
2021/11/09 00:57:07;;;;;;;28.20;8.80;;;;;;;;;;4994195;28;20440;-48
2021/11/09 00:59:33;;;;;;;20.57;7.67;;;;;;;;;;4994704;28;20440;-49
2021/11/09 01:01:59;;;;;;;18.00;6.50;;;;;;;;;;4994845;28;20403;-49
2021/11/09 01:04:26;;;;;;;21.13;7.73;;;;;;;;;;4994804;28;20409;-49
2021/11/09 01:06:53;;;;;;;23.20;8.87;;;;;;;;;;4994557;28;20433;-47
2021/11/09 01:09:19;;;;;;;16.23;8.47;;;;;;;;;;4994486;28;20891;-47
2021/11/09 01:11:45;;;;;;;28.53;8.90;;;;;;;;;;4994581;28;20462;-47
2021/11/09 01:14:12;;;;;;;27.37;9.10;;;;;;;;;;4994695;28;20680;-48
2021/11/09 01:16:39;;;;;;;21.90;8.63;;;;;;;;;;4994402;28;20422;-47
2021/11/09 01:19:07;;;;;;;23.17;8.10;;;;;;;;;;4994347;28;20480;-47
2021/11/09 01:21:33;;;;;;;16.80;8.07;;;;;;;;;;4994481;28;20479;-47
2021/11/09 01:24:00;;;;;;;20.23;8.47;;;;;;;;;;4994474;28;20411;-47
2021/11/09 01:26:26;;;;;;;16.97;8.20;;;;;;;;;;4994379;28;20882;-47
2021/11/09 01:28:53;;;;;;;17.73;9.20;;;;;;;;;;4994141;28;20431;-50
2021/11/09 01:31:20;;;;;;;28.93;8.90;;;;;;;;;;4994168;28;20508;-47
2021/11/09 01:33:46;;;;;;;27.33;7.80;;;;;;;;;;4994224;28;20464;-47
2021/11/09 01:36:12;;;;;;;17.50;7.83;;;;;;;;;;4994067;28;20937;-47
2021/11/09 01:38:39;;;;;;;15.80;7.47;;;;;;;;;;4993959;28;20832;-47
2021/11/09 01:41:05;;;;;;;20.47;8.40;;;;;;;;;;4994184;28;20410;-47
2021/11/09 01:43:32;;;;;;;17.00;8.63;;;;;;;;;;4994056;28;20472;-47
2021/11/09 01:45:58;;;;;;;17.17;8.60;;;;;;;;;;4993942;28;20432;-49
2021/11/09 01:48:25;;;;;;;16.20;7.60;;;;;;;;;;4993639;28;20892;-47
2021/11/09 01:50:56;;;;;;;25.40;9.50;;;;;;;;;;4993901;28;20460;-47
2021/11/09 01:53:23;;;;;;;23.67;9.43;;;;;;;;;;4993918;28;20546;-49
2021/11/09 01:55:50;;;;;;;28.57;8.80;;;;;;;;;;4993803;28;20504;-47
2021/11/09 01:58:17;;;;;;;21.10;9.37;;;;;;;;;;4993517;28;20606;-47
2021/11/09 02:00:50;;;;;;;30.50;9.00;;;;;;;;;;4993407;28;20406;-50
2021/11/09 02:03:17;;;;;;;23.53;8.53;;;;;;;;;;4993200;28;20778;-47
2021/11/09 02:05:44;;;;;;;26.80;9.30;;;;;;;;;;4993409;28;20456;-47
2021/11/09 02:08:10;;;;;;;26.47;9.77;;;;;;;;;;4993305;28;20491;-47
2021/11/09 02:10:38;;;;;;;21.30;8.10;;;;;;;;;;4992632;28;20575;-47
2021/11/09 02:13:04;;;;;;;22.40;8.33;;;;;;;;;;4993513;28;20417;-48
2021/11/09 02:15:31;;;;;;;20.40;8.67;;;;;;;;;;4993217;28;20417;-47
2021/11/09 02:17:57;;;;;;;25.33;8.33;;;;;;;;;;4993149;28;20416;-47
2021/11/09 02:20:26;;;;;;;19.93;8.43;;;;;;;;;;4993386;28;20826;-47
2021/11/09 02:22:52;;;;;;;16.10;8.30;;;;;;;;;;4993489;28;20649;-47
2021/11/09 02:25:20;;;;;;;22.63;9.77;;;;;;;;;;4993233;28;20397;-47
2021/11/09 02:27:47;;;;;;;23.47;8.53;;;;;;;;;;4992975;28;20893;-48
2021/11/09 02:30:15;;;;;;;18.80;9.20;;;;;;;;;;4992980;28;20455;-47
2021/11/09 02:32:41;;;;;;;21.50;9.87;;;;;;;;;;4993139;28;20415;-50
2021/11/09 02:35:07;;;;;;;27.83;9.43;;;;;;;;;;4993114;28;20500;-50
2021/11/09 02:37:33;;;;;;;30.37;9.23;;;;;;;;;;4992643;28;20447;-47
2021/11/09 02:40:00;;;;;;;18.27;8.77;;;;;;;;;;4993039;28;20792;-48
2021/11/09 02:42:38;;;;;;;21.00;9.20;;;;;;;;;;4992966;28;20638;-47
2021/11/09 02:45:15;;;;;;;16.73;8.57;;;;;;;;;;4992970;28;20408;-48
2021/11/09 02:47:45;;;;;;;25.30;9.20;;;;;;;;;;4992615;28;20900;-47
2021/11/09 02:50:13;;;;;;;23.13;9.07;;;;;;;;;;4992827;28;20456;-47
2021/11/09 02:52:47;;;;;;;20.30;10.03;;;;;;;;;;4992913;28;20401;-47
2021/11/09 02:55:13;;;;;;;24.60;9.10;;;;;;;;;;4992684;28;20468;-49
2021/11/09 02:57:48;;;;;;;24.27;8.40;;;;;;;;;;4992488;28;20402;-47
2021/11/09 03:02:48;;;;;;;25.27;8.50;;;;;;;;;;4992761;28;20424;-48
2021/11/09 03:05:20;;;;;;;22.77;8.87;;;;;;;;;;4992683;28;20406;-47
2021/11/09 03:07:54;;;;;;;21.20;8.93;;;;;;;;;;4992389;28;20413;-46
2021/11/09 03:10:32;;;;;;;25.43;10.70;;;;;;;;;;4992757;28;20456;-47
2021/11/09 03:12:58;;;;;;;22.00;9.57;;;;;;;;;;4992603;28;20392;-47
2021/11/09 03:15:27;;;;;;;15.77;8.83;;;;;;;;;;4992384;28;20400;-48
2021/11/09 03:17:58;;;;;;;23.47;9.40;;;;;;;;;;4992211;28;20400;-49
2021/11/09 03:20:32;;;;;;;22.83;10.47;;;;;;;;;;4992281;28;20411;-47
2021/11/09 03:45:04;;;;;;;26.90;10.30;;;;;;;;;;4992283;28;20413;-47
2021/11/09 03:47:31;;;;;;;17.90;9.50;;;;;;;;;;4991983;28;20416;-47
2021/11/09 03:49:59;;;;;;;32.03;10.60;;;;;;;;;;4992189;28;20452;-47
2021/11/09 03:52:28;;;;;;;28.43;12.13;;;;;;;;;;4992200;28;20398;-47
2021/11/09 03:55:03;;;;;;;12.87;8.50;;;;;;;;;;4992212;28;20401;-49
2021/11/09 03:58:01;;;;;;;24.10;10.27;;;;;;;;;;4991794;28;20455;-47
2021/11/09 04:03:00;;;;;;;25.97;11.70;;;;;;;;;;4992358;28;20408;-47
2021/11/09 04:05:33;;;;;;;24.80;10.70;;;;;;;;;;4992040;28;20392;-47
2021/11/09 04:08:12;;;;;;;32.10;10.07;;;;;;;;;;4991826;28;20400;-47
2021/11/09 04:24:30;;;;;;;24.98;10.45;;;;;;;;;;4992124;28;20410;-47
2021/11/09 04:32:08;;;;;;;33.13;12.10;;;;;;;;;;4991784;28;20463;-47
2021/11/09 04:41:04;;;;;;;24.70;10.80;;;;;;;;;;4995278;28;20561;-47
2021/11/09 04:47:00;;;;;;;26.73;11.55;;;;;;;;;;4995400;28;20229;-48
2021/11/09 05:02:43;;;;;;;30.17;12.88;;;;;;;;;;4994998;28;20253;-46
2021/11/09 05:10:58;;;;;;;23.10;11.85;;;;;;;;;;4915410;29;20251;-46
2021/11/09 05:13:24;;;;;;;36.63;11.97;;;;;;;;;;4979548;28;20638;-47
2021/11/09 05:15:51;;;;;;;29.92;13.40;;;;;;;;;;4994556;28;20443;-46
2021/11/09 05:18:17;;;;;;;30.38;11.30;;;;;;;;;;4994362;28;20177;-47
2021/11/09 05:20:44;;;;;;;30.50;12.15;;;;;;;;;;4994521;28;20518;-46
2021/11/09 05:23:10;;;;;;;32.78;12.00;;;;;;;;;;4994454;28;20180;-49
2021/11/09 05:25:36;;;;;;;31.20;12.40;;;;;;;;;;4994726;28;20193;-49
2021/11/09 05:28:02;;;;;;;33.13;13.57;;;;;;;;;;4994072;28;20247;-47
2021/11/09 05:30:28;;;;;;;31.15;13.02;;;;;;;;;;4994300;28;20448;-50
2021/11/09 05:32:58;;;;;;;27.05;13.25;;;;;;;;;;4994339;28;20173;-47
2021/11/09 05:35:24;;;;;;;39.13;12.25;;;;;;;;;;4994119;28;20260;-50
2021/11/09 05:37:52;;;;;;;37.80;12.63;;;;;;;;;;4993937;28;20205;-50
2021/11/09 05:40:21;;;;;;;29.75;11.52;;;;;;;;;;4994059;28;20176;-47
2021/11/09 05:42:47;;;;;;;28.63;13.30;;;;;;;;;;4994095;28;20625;-48
2021/11/09 05:45:17;;;;;;;29.08;12.40;;;;;;;;;;4993947;28;20173;-48
2021/11/09 05:47:43;;;;;;;26.67;13.35;;;;;;;;;;4993794;28;20169;-47
2021/11/09 05:50:09;;;;;;;21.13;12.17;;;;;;;;;;4993957;28;20680;-47
2021/11/09 05:52:35;;;;;;;27.98;12.50;;;;;;;;;;4993994;28;20406;-48
2021/11/09 05:55:01;;;;;;;34.42;13.85;;;;;;;;;;4993793;28;20193;-47
2021/11/09 05:57:27;;;;;;;32.87;13.53;;;;;;;;;;4993511;28;20283;-47
2021/11/09 05:59:53;;;;;;;25.33;11.17;;;;;;;;;;4993782;28;20408;-47
2021/11/09 06:02:19;;;;;;;27.60;12.37;;;;;;;;;;4994874;28;20819;-51
2021/11/09 06:04:50;;;;;;;30.73;11.40;;;;;;;;;;4993705;28;20855;-47
2021/11/09 06:07:16;;;;;;;29.40;13.25;;;;;;;;;;4993535;28;20425;-47
2021/11/09 06:09:42;;;;;;;26.87;10.87;;;;;;;;;;4993257;28;20239;-47
2021/11/09 06:12:08;;;;;;;21.10;11.23;;;;;;;;;;4993561;28;20404;-47
2021/11/09 06:14:34;;;;;;;24.95;12.07;;;;;;;;;;4993525;28;20434;-47
2021/11/09 06:17:00;;;;;;;32.33;12.37;;;;;;;;;;4993376;28;20227;-47
2021/11/09 06:19:26;;;;;;;20.80;11.23;;;;;;;;;;4993233;28;20393;-47
2021/11/09 06:21:52;;;;;;;27.13;11.40;;;;;;;;;;4993450;28;20396;-47
2021/11/09 06:24:19;;;;;;;28.65;11.00;;;;;;;;;;4993243;28;20408;-47
2021/11/09 06:26:45;;;;;;;30.67;12.47;;;;;;;;;;4993113;28;20189;-47
2021/11/09 06:29:11;;;;;;;22.97;11.27;;;;;;;;;;4992626;28;20401;-47
2021/11/09 06:31:37;;;;;;;23.00;11.77;;;;;;;;;;4992352;28;20472;-47
2021/11/09 06:34:04;;;;;;;21.10;12.00;;;;;;;;;;4992664;28;20401;-47
2021/11/09 06:36:31;;;;;;;25.65;11.35;;;;;;;;;;4992147;28;20511;-49
2021/11/09 06:38:57;;;;;;;25.73;11.13;;;;;;;;;;4992537;28;20169;-47
2021/11/09 06:41:23;;;;;;;23.43;9.90;;;;;;;;;;4992548;28;20548;-47
2021/11/09 06:43:49;;;;;;;21.08;11.90;;;;;;;;;;4992485;28;20405;-48
2021/11/09 06:46:16;;;;;;;36.65;11.88;;;;;;;;;;4992353;28;20193;-47
2021/11/09 06:48:44;;;;;;;21.45;12.02;;;;;;;;;;4991882;28;20633;-47
2021/11/09 06:51:10;;;;;;;28.13;11.55;;;;;;;;;;4992254;28;20193;-47
2021/11/09 06:53:36;;;;;;;28.20;11.20;;;;;;;;;;4992179;28;20175;-47
2021/11/09 06:56:02;;;;;;;31.10;10.97;;;;;;;;;;4992464;28;20417;-47
2021/11/09 06:58:29;;;;;;;23.40;10.97;;;;;;;;;;4992019;28;20455;-48
2021/11/09 07:00:55;;;;;;;22.98;11.07;;;;;;;;;;4992704;28;20462;-46
2021/11/09 07:03:21;;;;;;;22.17;10.90;;;;;;;;;;4975087;28;20185;-47
2021/11/09 07:05:47;;;;;;;17.90;11.00;;;;;;;;;;4992405;28;20428;-47
2021/11/09 07:08:12;;;;;;;20.83;11.10;;;;;;;;;;4992281;28;20904;-47
2021/11/09 07:10:38;;;;;;;21.73;10.63;;;;;;;;;;4992520;28;20201;-49
2021/11/09 07:13:04;;;;;;;31.63;10.57;;;;;;;;;;4992571;28;20400;-50
2021/11/09 07:15:30;;;;;;;23.13;10.53;;;;;;;;;;4992463;28;20423;-47
2021/11/09 07:17:56;;;;;;;22.53;10.87;;;;;;;;;;4992235;28;20819;-47
2021/11/09 07:20:22;;;;;;;20.73;10.40;;;;;;;;;;4992420;28;20432;-47
2021/11/09 07:22:49;;;;;;;25.43;10.80;;;;;;;;;;4992390;28;20884;-47
2021/11/09 07:25:15;;;;;;;16.70;9.55;;;;;;;;;;4992390;28;20884;-47
2021/11/09 07:27:42;;;;;;;20.00;10.00;;;;;;;;;;4992141;28;20180;-51
2021/11/09 07:30:09;;;;;;;22.10;9.80;;;;;;;;;;4992280;28;20804;-50
2021/11/09 07:32:36;;;;;;;21.37;10.80;;;;;;;;;;4992435;28;20170;-47
2021/11/09 07:35:02;;;;;;;16.63;9.53;;;;;;;;;;4992285;28;20396;-47
2021/11/09 07:37:28;;;;;;;20.80;9.90;;;;;;;;;;4991860;28;20441;-47
2021/11/09 07:39:54;;;;;;;20.77;9.47;;;;;;;;;;4992287;28;20470;-47
2021/11/09 07:42:20;;;;;;;21.53;9.77;;;;;;;;;;4992336;28;20969;-49
2021/11/09 07:44:47;;;;;;;15.67;8.80;;;;;;;;;;4992262;28;20401;-47
2021/11/09 07:47:13;;;;;;;14.20;9.30;;;;;;;;;;4992135;28;20417;-47
2021/11/09 07:49:41;;;;;;;19.40;10.73;;;;;;;;;;4991968;28;20415;-47
2021/11/09 07:52:08;;;;;;;27.40;10.47;;;;;;;;;;4974720;28;20416;-47
2021/11/09 07:54:36;;;;;;;23.57;10.20;;;;;;;;;;4992133;28;20421;-47
2021/11/09 07:57:09;;;;;;;26.23;10.17;;;;;;;;;;4992063;28;20417;-48
2021/11/09 08:02:44;;;;;;;22.53;10.37;;;;;;;;;;4992137;28;20479;-47
2021/11/09 08:05:02;;;;;;;21.60;11.33;;;;;;;;;;4991372;28;20417;-46
2021/11/09 08:07:47;;;;;;;32.33;11.27;;;;;;;;;;4992416;28;20420;-47
2021/11/09 08:10:13;;;;;;;28.20;9.70;;;;;;;;;;4995755;28;20447;-47
2021/11/09 08:12:39;;;;;;;18.47;9.80;;;;;;;;;;4995779;28;20413;-47
2021/11/09 08:15:05;;;;;;;16.93;8.57;;;;;;;;;;4995916;28;20404;-47
2021/11/09 08:17:31;;;;;;;17.37;8.60;;;;;;;;;;4978000;28;20465;-49
2021/11/09 08:19:57;;;;;;;17.30;8.60;;;;;;;;;;4995665;28;20413;-48
2021/11/09 08:22:23;;;;;;;19.27;9.40;;;;;;;;;;4988318;28;20508;-49
2021/11/09 08:24:50;;;;;;;16.83;9.60;;;;;;;;;;4995447;28;20404;-48
2021/11/09 08:27:16;;;;;;;18.10;8.00;;;;;;;;;;4977879;28;20944;-48
2021/11/09 08:29:49;;;;;;;15.80;8.40;;;;;;;;;;4995216;28;20907;-49
2021/11/09 08:32:15;;;;;;;18.00;8.27;;;;;;;;;;5003877;28;20442;-47
2021/11/09 08:34:41;;;;;;;19.60;7.80;;;;;;;;;;5014840;28;20438;-47
2021/11/09 08:37:07;;;;;;;17.13;7.70;;;;;;;;;;5014507;28;20481;-48
2021/11/09 08:39:38;;;;;;;17.97;8.07;;;;;;;;;;5014492;28;20439;-47
2021/11/09 08:44:46;;;;;;;20.17;9.33;;;;;;;;;;5014800;28;20446;-48
2021/11/09 08:47:16;;;;;;;15.47;8.17;;;;;;;;;;5014603;28;20423;-47
2021/11/09 08:49:43;;;;;;;14.90;7.30;;;;;;;;;;5013523;28;20493;-47
2021/11/09 08:52:12;;;;;;;12.60;7.77;;;;;;;;;;5014766;28;20750;-48
2021/11/09 08:54:48;;;;;;;15.03;8.80;;;;;;;;;;5014555;28;20407;-47
2021/11/09 09:05:10;;;;;;;9.20;5.83;;;;;;;;;;5014411;28;20481;-47
2021/11/09 09:07:36;;;;;;;13.30;6.20;;;;;;;;;;5013844;28;20415;-47
2021/11/09 09:10:03;;;;;;;12.67;6.10;;;;;;;;;;5014343;28;20803;-48
2021/11/09 09:12:30;;;;;;;13.90;5.80;;;;;;;;;;5014273;28;20771;-48
2021/11/09 09:14:57;;;;;;;11.70;4.80;;;;;;;;;;5014189;28;20412;-48
2021/11/09 09:17:24;;;;;;;9.43;6.10;;;;;;;;;;5013999;28;20431;-50
2021/11/09 09:20:11;;;;;;;9.07;5.20;;;;;;;;;;5013653;28;20778;-49
2021/11/09 09:22:46;;;;;;;6.73;3.90;;;;;;;;;;5014248;28;20781;-48
2021/11/09 09:25:23;;;;;;;8.30;3.60;;;;;;;;;;5014109;28;20439;-48
2021/11/09 09:30:29;;;;;;;10.13;4.70;;;;;;;;;;5013916;28;20445;-48
2021/11/09 09:33:08;;;;;;;6.50;3.87;;;;;;;;;;5013850;28;20421;-48
2021/11/09 09:52:19;;;;;;;8.87;3.27;;;;;;;;;;5013525;28;20480;-50
2021/11/09 09:57:24;;;;;;;4.60;2.73;;;;;;;;;;5013419;28;20446;-48
2021/11/09 09:59:53;;;;;;;6.60;3.10;;;;;;;;;;5013643;28;20771;-51
2021/11/09 10:02:27;;;;;;;7.73;3.23;;;;;;;;;;5013399;28;20410;-49
2021/11/09 10:04:57;;;;;;;5.73;3.60;;;;;;;;;;5013088;28;20402;-49
2021/11/09 10:07:40;;;;;;;3.50;2.57;;;;;;;;;;5012934;28;20442;-48
2021/11/09 10:10:12;;;;;;;3.90;2.93;;;;;;;;;;5014516;28;20513;-49
2021/11/09 10:12:40;;;;;;;6.67;2.67;;;;;;;;;;5013029;28;20986;-49
2021/11/09 10:15:06;;;;;;;2.83;2.33;;;;;;;;;;5012561;28;20439;-48
2021/11/09 10:17:32;;;;;;;4.67;2.50;;;;;;;;;;5012691;28;20997;-49
2021/11/09 10:20:09;;;;;;;4.43;2.70;;;;;;;;;;5012988;28;20411;-49
2021/11/09 10:22:35;;;;;;;9.13;2.57;;;;;;;;;;5013092;28;20454;-48
2021/11/09 10:25:06;;;;;;;3.33;2.67;;;;;;;;;;5012873;28;20491;-49
2021/11/09 10:27:33;;;;;;;4.80;2.00;;;;;;;;;;5013061;28;20415;-49
2021/11/09 10:30:00;;;;;;;2.90;2.60;;;;;;;;;;5011917;28;20782;-49
2021/11/09 10:32:28;;;;;;;5.37;2.40;;;;;;;;;;5012911;28;20500;-50
2021/11/09 10:34:55;;;;;;;4.30;2.40;;;;;;;;;;5012655;28;20427;-49
2021/11/09 10:37:25;;;;;;;3.27;2.00;;;;;;;;;;5012208;28;20446;-48
2021/11/09 10:39:53;;;;;;;3.30;2.00;;;;;;;;;;5012676;28;20394;-49
2021/11/09 10:42:22;;;;;;;4.20;2.50;;;;;;;;;;5012410;28;20403;-50
2021/11/09 10:45:14;;;;;;;2.53;2.00;;;;;;;;;;5012627;28;20403;-48
2021/11/09 10:47:41;;;;;;;3.73;2.30;;;;;;;;;;5008243;28;20415;-49
2021/11/09 10:50:17;;;;;;;3.40;2.10;;;;;;;;;;5012288;28;20539;-52
2021/11/09 10:52:44;;;;;;;5.13;2.50;;;;;;;;;;5012472;28;20407;-51
2021/11/09 10:58:12;;;;;;;2.60;2.37;;;;;;;;;;5012289;28;20542;-49
2021/11/09 11:06:08;;;;;;;4.00;1.60;;;;;;;;;;5012604;28;20937;-49
2021/11/09 11:08:34;;;;;;;3.70;1.97;;;;;;;;;;5011993;28;20396;-50
2021/11/09 11:11:14;;;;;;;2.20;1.87;;;;;;;;;;5012099;28;20450;-49
2021/11/09 11:13:40;;;;;;;4.07;1.93;;;;;;;;;;5011884;28;20917;-49
2021/11/09 11:16:11;;;;;;;7.63;2.27;;;;;;;;;;5012124;28;20419;-48
2021/11/09 11:19:04;;;;;;;3.70;1.80;;;;;;;;;;5012271;28;20407;-50
2021/11/09 11:21:30;;;;;;;3.10;2.00;;;;;;;;;;5007841;28;20510;-48
2021/11/09 11:23:57;;;;;;;5.40;2.20;;;;;;;;;;5012031;28;20491;-50
2021/11/09 11:26:23;;;;;;;5.40;2.40;;;;;;;;;;5011904;28;20492;-49
2021/11/09 11:28:51;;;;;;;4.63;2.03;;;;;;;;;;5011725;28;20485;-51
2021/11/09 11:31:17;;;;;;;4.13;2.03;;;;;;;;;;5011950;28;20489;-50
2021/11/09 11:33:43;;;;;;;8.30;2.07;;;;;;;;;;5011879;28;20487;-49
2021/11/09 11:36:10;;;;;;;5.97;3.00;;;;;;;;;;5011748;28;20438;-50
2021/11/09 11:38:39;;;;;;;4.50;2.40;;;;;;;;;;5011500;28;20406;-48
2021/11/09 11:41:05;;;;;;;2.57;1.77;;;;;;;;;;5012031;28;20443;-50
2021/11/09 11:43:43;;;;;;;3.10;1.80;;;;;;;;;;5000137;28;20503;-51
2021/11/09 11:46:09;;;;;;;3.60;2.17;;;;;;;;;;4979577;28;20441;-51
2021/11/09 11:48:54;;;;;;;5.83;2.40;;;;;;;;;;4984167;28;20455;-50
2021/11/09 11:51:20;;;;;;;5.67;2.00;;;;;;;;;;4976666;28;20529;-49
2021/11/09 11:53:47;;;;;;;3.87;2.60;;;;;;;;;;4983605;28;20900;-49
2021/11/09 11:56:13;;;;;;;5.07;3.17;;;;;;;;;;4984366;28;20482;-51
2021/11/09 11:58:40;;;;;;;2.43;2.00;;;;;;;;;;4984080;28;20412;-49
2021/11/09 12:01:06;;;;;;;4.93;2.17;;;;;;;;;;4986474;28;20989;-51
2021/11/09 12:03:34;;;;;;;6.17;2.70;;;;;;;;;;4984809;28;20487;-50
2021/11/09 12:06:02;;;;;;;5.80;2.57;;;;;;;;;;4986768;28;21049;-48
2021/11/09 12:08:35;;;;;;;5.80;2.30;;;;;;;;;;4989156;28;20883;-49
2021/11/09 12:11:01;;;;;;;4.70;2.00;;;;;;;;;;4995802;28;20459;-50
2021/11/09 12:13:27;;;;;;;3.07;1.77;;;;;;;;;;4997465;28;20884;-53
2021/11/09 12:15:55;;;;;;;2.83;2.13;;;;;;;;;;4996572;28;20433;-52
2021/11/09 12:18:41;;;;;;;4.90;2.37;;;;;;;;;;4996203;28;20422;-52
2021/11/09 12:21:09;;;;;;;5.17;2.60;;;;;;;;;;4995576;28;20896;-53
2021/11/09 12:23:36;;;;;;;5.00;2.20;;;;;;;;;;4994877;28;20410;-52
2021/11/09 12:26:02;;;;;;;3.43;2.10;;;;;;;;;;4994567;28;20431;-54
2021/11/09 12:28:35;;;;;;;3.17;1.73;;;;;;;;;;4992565;28;20419;-51
2021/11/09 12:31:12;;;;;;;3.90;2.10;;;;;;;;;;4993023;28;20458;-50
2021/11/09 12:33:45;;;;;;;3.67;2.33;;;;;;;;;;4993744;28;20404;-53
2021/11/09 12:36:11;;;;;;;6.47;2.53;;;;;;;;;;4994618;28;20946;-53
2021/11/09 12:38:40;;;;;;;3.73;2.13;;;;;;;;;;4995100;28;20444;-52
2021/11/09 12:41:12;;;;;;;5.37;2.03;;;;;;;;;;4994975;28;20453;-53
2021/11/09 12:43:42;;;;;;;9.33;2.70;;;;;;;;;;4995789;28;20421;-53
2021/11/09 12:46:11;;;;;;;3.33;2.30;;;;;;;;;;4996264;28;20513;-53
2021/11/09 12:48:39;;;;;;;5.37;2.70;;;;;;;;;;4995926;28;20398;-52
2021/11/09 12:51:06;;;;;;;5.20;2.57;;;;;;;;;;4996469;28;20448;-53
2021/11/09 12:53:36;;;;;;;9.80;2.30;;;;;;;;;;4995425;28;20390;-53
2021/11/09 12:56:13;;;;;;;3.97;2.47;;;;;;;;;;4996333;28;20442;-52
2021/11/09 12:59:07;;;;;;;3.67;2.37;;;;;;;;;;4995873;28;20425;-53
2021/11/09 13:02:40;;;;;;;5.33;2.33;;;;;;;;;;4994360;28;20445;-53
2021/11/09 13:10:01;;;;;;;5.03;2.70;;;;;;;;;;4995144;28;20500;-51
2021/11/09 13:12:32;;;;;;;4.60;2.60;;;;;;;;;;4994631;28;20902;-51
2021/11/09 13:14:59;;;;;;;5.40;2.10;;;;;;;;;;4994624;28;20898;-51
2021/11/09 13:17:31;;;;;;;3.83;1.90;;;;;;;;;;4994287;28;20468;-50
2021/11/09 13:20:05;;;;;;;4.60;2.00;;;;;;;;;;4994771;28;20480;-51
2021/11/09 13:22:31;;;;;;;3.87;2.00;;;;;;;;;;4995901;28;20408;-53
2021/11/09 13:25:03;;;;;;;6.17;2.27;;;;;;;;;;4995771;28;20491;-53
2021/11/09 13:27:33;;;;;;;3.90;2.20;;;;;;;;;;4995326;28;20459;-53
2021/11/09 13:30:07;;;;;;;6.13;2.57;;;;;;;;;;4995309;28;20454;-53
2021/11/09 13:32:33;;;;;;;4.23;2.20;;;;;;;;;;4994955;28;20466;-53
2021/11/09 13:34:59;;;;;;;3.83;2.50;;;;;;;;;;4995364;28;20770;-53
2021/11/09 13:37:25;;;;;;;7.90;2.60;;;;;;;;;;4994335;28;20444;-52
2021/11/09 13:39:58;;;;;;;4.70;2.60;;;;;;;;;;4992903;28;20403;-53
2021/11/09 13:42:24;;;;;;;8.33;2.63;;;;;;;;;;4992611;28;20965;-53
2021/11/09 13:44:50;;;;;;;3.53;2.40;;;;;;;;;;4994167;28;20400;-53
2021/11/09 13:47:28;;;;;;;4.07;2.37;;;;;;;;;;4994503;28;20924;-52
2021/11/09 13:50:04;;;;;;;4.33;2.50;;;;;;;;;;4994076;28;20392;-53
2021/11/09 13:52:30;;;;;;;5.93;2.77;;;;;;;;;;4994399;28;20411;-53
2021/11/09 13:54:57;;;;;;;3.10;2.20;;;;;;;;;;4994836;28;20396;-52
2021/11/09 13:57:23;;;;;;;7.00;2.37;;;;;;;;;;4993442;28;20427;-53
2021/11/09 13:59:49;;;;;;;5.90;2.47;;;;;;;;;;4993670;28;20412;-52
2021/11/09 14:02:33;;;;;;;3.60;2.27;;;;;;;;;;4992195;28;20403;-53
2021/11/09 14:11:15;;;;;;;7.53;2.43;;;;;;;;;;4934040;29;20466;-51
2021/11/09 14:16:44;;;;;;;5.27;2.73;;;;;;;;;;4995443;28;20522;-51
2021/11/09 14:19:12;;;;;;;4.67;2.93;;;;;;;;;;4994638;28;20370;-51
2021/11/09 14:21:40;;;;;;;4.40;2.67;;;;;;;;;;4995250;28;20435;-52
2021/11/09 14:24:10;;;;;;;4.33;2.77;;;;;;;;;;4994966;28;20379;-53
2021/11/09 14:26:37;;;;;;;6.40;2.83;;;;;;;;;;4994471;28;20401;-50
2021/11/09 14:29:14;;;;;;;8.33;2.40;;;;;;;;;;4993837;28;20909;-51
2021/11/09 14:31:46;;;;;;;3.93;2.77;;;;;;;;;;4994105;28;20430;-53
2021/11/09 14:34:19;;;;;;;10.23;3.10;;;;;;;;;;4994046;28;20368;-53
2021/11/09 14:36:48;;;;;;;4.80;2.40;;;;;;;;;;4993857;28;20491;-52
2021/11/09 14:39:25;;;;;;;5.80;2.63;;;;;;;;;;4992404;28;20404;-53
2021/11/09 14:42:02;;;;;;;5.00;2.90;;;;;;;;;;4994041;28;20558;-50
2021/11/09 14:44:29;;;;;;;5.73;2.63;;;;;;;;;;4994222;28;20890;-51
2021/11/09 14:46:57;;;;;;;5.13;2.63;;;;;;;;;;4994300;28;20410;-53
2021/11/09 14:49:37;;;;;;;4.70;2.97;;;;;;;;;;4994220;28;20419;-52
2021/11/09 14:52:08;;;;;;;11.67;3.20;;;;;;;;;;4994327;28;20481;-52
2021/11/09 14:54:35;;;;;;;6.93;2.83;;;;;;;;;;4993946;28;20445;-52
2021/11/09 14:57:07;;;;;;;8.73;3.03;;;;;;;;;;4993756;28;20395;-53
2021/11/09 14:59:34;;;;;;;3.60;2.70;;;;;;;;;;4993571;28;20413;-52
2021/11/09 15:02:04;;;;;;;8.10;2.77;;;;;;;;;;4993957;28;20404;-53
2021/11/09 15:04:41;;;;;;;6.00;3.43;;;;;;;;;;4993502;28;20748;-52
2021/11/09 15:28:47;;;;;;;2.60;2.40;;;;;;;;;;4992524;28;20495;-51
2021/11/09 15:31:37;;;;;;;3.93;3.00;;;;;;;;;;4992809;28;20967;-52
2021/11/09 15:36:59;;;;;;;7.97;3.00;;;;;;;;;;4992396;28;20451;-53
2021/11/09 15:39:28;;;;;;;9.30;3.20;;;;;;;;;;4992232;28;20885;-52
2021/11/09 15:41:54;;;;;;;4.13;2.77;;;;;;;;;;4992429;28;20407;-52
2021/11/09 15:44:20;;;;;;;6.40;3.27;;;;;;;;;;4992471;28;20422;-48
2021/11/09 15:46:46;;;;;;;5.30;2.90;;;;;;;;;;4992367;28;20427;-52
2021/11/09 15:49:13;;;;;;;10.13;3.43;;;;;;;;;;4992428;28;20405;-53
2021/11/09 15:51:40;;;;;;;4.60;4.20;;;;;;;;;;4992607;28;20450;-51
2021/11/09 15:54:10;;;;;;;3.97;3.10;;;;;;;;;;4992471;28;20467;-51
2021/11/09 15:56:37;;;;;;;5.30;3.80;;;;;;;;;;4992108;28;20440;-50
2021/11/09 15:59:04;;;;;;;4.00;3.10;;;;;;;;;;4992227;28;20503;-52
2021/11/09 16:01:30;;;;;;;6.37;2.93;;;;;;;;;;4992521;28;20401;-52
2021/11/09 16:03:57;;;;;;;2.70;2.40;;;;;;;;;;4992646;28;20405;-52
2021/11/09 16:06:25;;;;;;;5.30;3.67;;;;;;;;;;4992789;28;20916;-52
2021/11/09 16:08:51;;;;;;;5.57;4.03;;;;;;;;;;4989338;28;20938;-52
2021/11/09 16:11:17;;;;;;;9.30;3.63;;;;;;;;;;4992250;28;20452;-52
2021/11/09 16:13:43;;;;;;;10.47;3.03;;;;;;;;;;4992219;28;20397;-52
2021/11/09 16:16:09;;;;;;;4.47;2.80;;;;;;;;;;4992324;28;20950;-52
2021/11/09 16:18:36;;;;;;;7.60;4.00;;;;;;;;;;4991852;28;20404;-51
2021/11/09 16:21:02;;;;;;;4.23;3.90;;;;;;;;;;4991890;28;20492;-52
2021/11/09 16:23:28;;;;;;;7.27;3.80;;;;;;;;;;4992129;28;20876;-52
2021/11/09 16:25:54;;;;;;;5.70;2.90;;;;;;;;;;4991838;28;20424;-52
2021/11/09 16:28:21;;;;;;;5.73;2.50;;;;;;;;;;4991968;28;20479;-52
2021/11/09 16:30:47;;;;;;;5.73;3.10;;;;;;;;;;4995690;28;20552;-50
2021/11/09 16:33:17;;;;;;;6.57;2.93;;;;;;;;;;4995514;28;20900;-51
2021/11/09 16:35:50;;;;;;;8.00;3.40;;;;;;;;;;4995411;28;20463;-50
2021/11/09 16:38:23;;;;;;;5.30;3.77;;;;;;;;;;4995225;28;20405;-50
2021/11/09 16:40:50;;;;;;;4.27;3.03;;;;;;;;;;4995357;28;20459;-52
2021/11/09 16:43:20;;;;;;;6.73;3.30;;;;;;;;;;4995399;28;20396;-50
2021/11/09 16:48:35;;;;;;;7.00;3.90;;;;;;;;;;4964493;28;20382;-52
2021/11/09 16:51:10;;;;;;;4.73;3.00;;;;;;;;;;4994961;28;20455;-52
2021/11/09 16:53:38;;;;;;;5.10;3.53;;;;;;;;;;4995110;28;20404;-53
2021/11/09 16:56:31;;;;;;;5.50;3.40;;;;;;;;;;4994876;28;20491;-52
2021/11/09 17:02:07;;;;;;;6.27;4.00;;;;;;;;;;4994844;28;20443;-51
2021/11/09 18:12:54;;;;;;;22.43;11.60;;;;;;;;;;5017555;23;20967;-52
2021/11/09 18:20:25;;;;;;;11.80;8.23;;;;;;;;;;4993842;28;20461;-52
2021/11/09 18:22:53;;;;;;;13.40;8.27;;;;;;;;;;4993426;28;20506;-52
2021/11/09 18:25:21;;;;;;;21.73;10.97;;;;;;;;;;4993424;28;20835;-52
2021/11/09 18:27:48;;;;;;;17.20;9.70;;;;;;;;;;4993148;28;20462;-52
2021/11/09 18:30:16;;;;;;;24.80;11.60;;;;;;;;;;4993274;28;20435;-52
2021/11/09 18:32:43;;;;;;;22.30;8.80;;;;;;;;;;4993158;28;20447;-52
2021/11/09 18:35:11;;;;;;;18.63;6.70;;;;;;;;;;4993335;28;20775;-52
2021/11/09 18:37:37;;;;;;;11.63;6.00;;;;;;;;;;4992871;28;20400;-52
2021/11/09 18:40:04;;;;;;;17.70;6.80;;;;;;;;;;4993203;28;20515;-52